sensor_id;sensor_type;location;lat;lon;timestamp;pressure;altitude;pressure_sealevel;temperature;humidity
22775;BME280;11554;51.106;3.684;2023-04-01T00:00:00;99332.48;;;8.91;100.0
22775;BME280;11554;51.106;3.684;2023-04-01T00:05:00;99337.39;;;8.92;100.0
22775;BME280;11554;51.106;3.684;2023-04-01T00:10:00;99338.44;;;8.89;100.0
22775;BME280;11554;51.106;3.684;2023-04-01T00:15:00;99345.14;;;8.91;100.0
22775;BME280;11554;51.106;3.684;2023-04-01T00:20:00;99355.18;;;8.90;100.0
22775;BME280;11554;51.106;3.684;2023-04-01T00:25:00;99355.81;;;8.88;100.0
22775;BME280;11554;51.106;3.684;2023-04-01T00:30:00;99360.97;;;8.84;100.0
22775;BME280;11554;51.106;3.684;2023-04-01T00:35:00;99363.22;;;8.83;100.0
22775;BME280;11554;51.106;3.684;2023-04-01T00:40:00;99369.56;;;8.80;100.0
22775;BME280;11554;51.106;3.684;2023-04-01T00:50:00;99375.40000000001;;;8.74;100.0
22775;BME280;11554;51.106;3.684;2023-04-01T00:55:00;99387.34;;;8.70;100.0
22775;BME280;11554;51.106;3.684;2023-04-01T01:00:00;99401.0;;;8.68;100.0
22775;BME280;11554;51.106;3.684;2023-04-01T01:05:00;99398.0;;;8.64;100.0
22775;BME280;11554;51.106;3.684;2023-04-01T01:10:01;99400.48000000001;;;8.61;100.0
22775;BME280;11554;51.106;3.684;2023-04-01T01:15:02;99401.22;;;8.58;100.0
22775;BME280;11554;51.106;3.684;2023-04-01T01:20:07;99410.44;;;8.55;100.0
22775;BME280;11554;51.106;3.684;2023-04-01T01:25:10;99414.72;;;8.53;100.0
22775;BME280;11554;51.106;3.684;2023-04-01T01:30:08;99412.76000000001;;;8.48;100.0
22775;BME280;11554;51.106;3.684;2023-04-01T01:40:01;99424.44;;;8.47;100.0
22775;BME280;11554;51.106;3.684;2023-04-01T01:45:00;99424.53;;;8.46;100.0
22775;BME280;11554;51.106;3.684;2023-04-01T01:50:00;99432.45;;;8.44;100.0
22775;BME280;11554;51.106;3.684;2023-04-01T01:55:00;99440.5;;;8.45;100.0
22775;BME280;11554;51.106;3.684;2023-04-01T02:00:03;99440.62;;;8.45;100.0
22775;BME280;11554;51.106;3.684;2023-04-01T02:05:00;99452.53;;;8.45;100.0
22775;BME280;11554;51.106;3.684;2023-04-01T02:10:00;99452.81;;;8.43;100.0
22775;BME280;11554;51.106;3.684;2023-04-01T02:15:01;99460.79;;;8.45;100.0
22775;BME280;11554;51.106;3.684;2023-04-01T02:20:01;99468.45;;;8.44;100.0
22775;BME280;11554;51.106;3.684;2023-04-01T02:25:01;99477.59;;;8.45;100.0
22775;BME280;11554;51.106;3.684;2023-04-01T02:30:00;99478.58;;;8.44;100.0
22775;BME280;11554;51.106;3.684;2023-04-01T02:35:00;99483.92;;;8.44;100.0
22775;BME280;11554;51.106;3.684;2023-04-01T02:40:00;99487.58;;;8.45;100.0
22775;BME280;11554;51.106;3.684;2023-04-01T02:45:00;99493.06;;;8.44;100.0
22775;BME280;11554;51.106;3.684;2023-04-01T02:50:00;99498.41;;;8.45;100.0
22775;BME280;11554;51.106;3.684;2023-04-01T02:55:00;99503.58;;;8.45;100.0
22775;BME280;11554;51.106;3.684;2023-04-01T03:00:00;99505.40999999999;;;8.45;100.0
22775;BME280;11554;51.106;3.684;2023-04-01T03:05:00;99506.95;;;8.44;100.0
22775;BME280;11554;51.106;3.684;2023-04-01T03:10:00;99528.5;;;8.45;100.0
22775;BME280;11554;51.106;3.684;2023-04-01T03:15:00;99539.49;;;8.44;100.0
22775;BME280;11554;51.106;3.684;2023-04-01T03:20:00;99546.51;;;8.43;100.0
22775;BME280;11554;51.106;3.684;2023-04-01T03:25:00;99558.12;;;8.40;100.0
22775;BME280;11554;51.106;3.684;2023-04-01T03:30:00;99562.65;;;8.37;100.0
22775;BME280;11554;51.106;3.684;2023-04-01T03:35:00;99572.48;;;8.36;100.0
22775;BME280;11554;51.106;3.684;2023-04-01T03:40:00;99577.28;;;8.33;100.0
22775;BME280;11554;51.106;3.684;2023-04-01T03:45:00;99586.61;;;8.34;100.0
22775;BME280;11554;51.106;3.684;2023-04-01T03:50:00;99587.2;;;8.32;100.0
22775;BME280;11554;51.106;3.684;2023-04-01T03:55:00;99588.79;;;8.31;100.0
22775;BME280;11554;51.106;3.684;2023-04-01T04:00:00;99598.64;;;8.28;100.0
22775;BME280;11554;51.106;3.684;2023-04-01T04:05:00;99605.35;;;8.28;100.0
22775;BME280;11554;51.106;3.684;2023-04-01T04:10:00;99603.86;;;8.29;100.0
22775;BME280;11554;51.106;3.684;2023-04-01T04:15:00;99614.37;;;8.27;100.0
22775;BME280;11554;51.106;3.684;2023-04-01T04:20:00;99630.0;;;8.26;100.0
22775;BME280;11554;51.106;3.684;2023-04-01T04:25:00;99633.42;;;8.26;100.0
22775;BME280;11554;51.106;3.684;2023-04-01T04:30:00;99637.08;;;8.25;100.0
22775;BME280;11554;51.106;3.684;2023-04-01T04:35:00;99638.34000000001;;;8.24;100.0
22775;BME280;11554;51.106;3.684;2023-04-01T04:40:00;99640.52;;;8.24;100.0
22775;BME280;11554;51.106;3.684;2023-04-01T04:45:00;99652.45999999999;;;8.24;100.0
22775;BME280;11554;51.106;3.684;2023-04-01T04:50:00;99654.90999999999;;;8.25;100.0
22775;BME280;11554;51.106;3.684;2023-04-01T04:55:00;99661.84;;;8.24;100.0
22775;BME280;11554;51.106;3.684;2023-04-01T05:00:00;99669.62;;;8.23;100.0
22775;BME280;11554;51.106;3.684;2023-04-01T05:05:00;99673.85;;;8.20;100.0
22775;BME280;11554;51.106;3.684;2023-04-01T05:10:00;99683.62;;;8.19;100.0
22775;BME280;11554;51.106;3.684;2023-04-01T05:15:00;99691.61;;;8.17;100.0
22775;BME280;11554;51.106;3.684;2023-04-01T05:20:00;99700.61;;;8.14;100.0
22775;BME280;11554;51.106;3.684;2023-04-01T05:25:00;99711.08;;;8.14;100.0
22775;BME280;11554;51.106;3.684;2023-04-01T05:30:00;99712.42;;;8.10;100.0
22775;BME280;11554;51.106;3.684;2023-04-01T05:35:00;99719.97;;;8.08;100.0
22775;BME280;11554;51.106;3.684;2023-04-01T05:40:00;99729.81;;;8.05;100.0
22775;BME280;11554;51.106;3.684;2023-04-01T05:45:00;99732.75;;;8.05;100.0
22775;BME280;11554;51.106;3.684;2023-04-01T05:50:00;99742.44;;;8.05;100.0
22775;BME280;11554;51.106;3.684;2023-04-01T05:55:00;99743.73000000001;;;8.04;100.0
22775;BME280;11554;51.106;3.684;2023-04-01T06:00:00;99750.76000000001;;;8.03;100.0
22775;BME280;11554;51.106;3.684;2023-04-01T06:05:02;99751.73;;;8.03;100.0
22775;BME280;11554;51.106;3.684;2023-04-01T06:10:00;99771.7;;;8.04;100.0
22775;BME280;11554;51.106;3.684;2023-04-01T06:15:04;99772.56;;;8.03;100.0
22775;BME280;11554;51.106;3.684;2023-04-01T06:20:02;99781.87000000001;;;8.05;100.0
22775;BME280;11554;51.106;3.684;2023-04-01T06:25:04;99786.03;;;8.08;100.0
22775;BME280;11554;51.106;3.684;2023-04-01T06:30:03;99790.31;;;8.10;100.0
22775;BME280;11554;51.106;3.684;2023-04-01T06:35:06;99799.41;;;8.14;100.0
22775;BME280;11554;51.106;3.684;2023-04-01T06:40:04;99803.43000000001;;;8.15;100.0
22775;BME280;11554;51.106;3.684;2023-04-01T06:45:03;99806.12999999999;;;8.15;100.0
22775;BME280;11554;51.106;3.684;2023-04-01T06:50:01;99811.78;;;8.19;100.0
22775;BME280;11554;51.106;3.684;2023-04-01T06:55:00;99817.19;;;8.20;100.0
22775;BME280;11554;51.106;3.684;2023-04-01T07:00:01;99831.94;;;8.19;100.0
22775;BME280;11554;51.106;3.684;2023-04-01T07:05:00;99831.54;;;8.23;100.0
22775;BME280;11554;51.106;3.684;2023-04-01T07:10:02;99837.8;;;8.31;100.0
22775;BME280;11554;51.106;3.684;2023-04-01T07:15:02;99842.35;;;8.32;100.0
22775;BME280;11554;51.106;3.684;2023-04-01T07:20:02;99847.85;;;8.39;100.0
22775;BME280;11554;51.106;3.684;2023-04-01T07:25:01;99853.75;;;8.43;100.0
22775;BME280;11554;51.106;3.684;2023-04-01T07:30:00;99857.43;;;8.48;100.0
22775;BME280;11554;51.106;3.684;2023-04-01T07:35:04;99865.03;;;8.51;100.0
22775;BME280;11554;51.106;3.684;2023-04-01T07:40:04;99867.81999999999;;;8.48;100.0
22775;BME280;11554;51.106;3.684;2023-04-01T07:45:02;99882.0;;;8.41;100.0
22775;BME280;11554;51.106;3.684;2023-04-01T07:50:02;99882.28;;;8.44;100.0
22775;BME280;11554;51.106;3.684;2023-04-01T07:55:01;99889.21;;;8.56;100.0
22775;BME280;11554;51.106;3.684;2023-04-01T08:00:02;99893.89;;;8.62;100.0
22775;BME280;11554;51.106;3.684;2023-04-01T08:05:03;99903.25;;;8.59;100.0
22775;BME280;11554;51.106;3.684;2023-04-01T08:10:02;99908.42;;;8.65;100.0
22775;BME280;11554;51.106;3.684;2023-04-01T08:15:04;99920.68000000001;;;8.78;100.0
22775;BME280;11554;51.106;3.684;2023-04-01T08:20:05;99928.34;;;8.82;100.0
22775;BME280;11554;51.106;3.684;2023-04-01T08:25:01;99932.51000000001;;;8.92;100.0
22775;BME280;11554;51.106;3.684;2023-04-01T08:30:02;99946.12;;;8.91;100.0
22775;BME280;11554;51.106;3.684;2023-04-01T08:35:03;99948.99;;;8.86;100.0
22775;BME280;11554;51.106;3.684;2023-04-01T08:40:01;99959.66;;;8.85;100.0
22775;BME280;11554;51.106;3.684;2023-04-01T08:45:07;99963.08;;;8.90;100.0
22775;BME280;11554;51.106;3.684;2023-04-01T08:50:05;99970.33;;;8.96;100.0
22775;BME280;11554;51.106;3.684;2023-04-01T08:55:04;99975.72;;;9.25;100.0
22775;BME280;11554;51.106;3.684;2023-04-01T09:00:03;99977.15;;;9.59;100.0
22775;BME280;11554;51.106;3.684;2023-04-01T09:05:08;99989.51;;;9.66;100.0
22775;BME280;11554;51.106;3.684;2023-04-01T09:15:04;99994.04;;;9.63;100.0
22775;BME280;11554;51.106;3.684;2023-04-01T09:20:04;99998.99;;;9.41;100.0
22775;BME280;11554;51.106;3.684;2023-04-01T09:30:07;100008.87;;;9.31;100.0
22775;BME280;11554;51.106;3.684;2023-04-01T09:35:02;100009.91;;;9.36;100.0
22775;BME280;11554;51.106;3.684;2023-04-01T09:40:09;100019.84999999999;;;9.48;100.0
22775;BME280;11554;51.106;3.684;2023-04-01T09:45:01;100021.3;;;9.42;100.0
22775;BME280;11554;51.106;3.684;2023-04-01T09:50:06;100027.33;;;9.37;100.0
22775;BME280;11554;51.106;3.684;2023-04-01T09:55:05;100030.61;;;9.36;100.0
22775;BME280;11554;51.106;3.684;2023-04-01T10:00:06;100036.49;;;9.37;100.0
22775;BME280;11554;51.106;3.684;2023-04-01T10:10:06;100055.36;;;9.43;100.0
22775;BME280;11554;51.106;3.684;2023-04-01T10:20:02;100058.17;;;9.23;100.0
22775;BME280;11554;51.106;3.684;2023-04-01T10:30:05;100059.46;;;9.64;100.0
22775;BME280;11554;51.106;3.684;2023-04-01T10:35:05;100070.53;;;9.78;100.0
22775;BME280;11554;51.106;3.684;2023-04-01T10:55:05;100077.15;;;9.91;100.0
22775;BME280;11554;51.106;3.684;2023-04-01T11:00:06;100078.59;;;9.82;100.0
22775;BME280;11554;51.106;3.684;2023-04-01T11:20:08;100095.78;;;10.00;100.0
22775;BME280;11554;51.106;3.684;2023-04-01T11:25:06;100098.81;;;10.07;100.0
22775;BME280;11554;51.106;3.684;2023-04-01T11:30:04;100111.87999999999;;;10.03;100.0
22775;BME280;11554;51.106;3.684;2023-04-01T11:35:04;100110.72;;;9.99;100.0
22775;BME280;11554;51.106;3.684;2023-04-01T11:40:04;100121.48;;;9.88;100.0
22775;BME280;11554;51.106;3.684;2023-04-01T11:45:03;100131.31;;;9.78;100.0
22775;BME280;11554;51.106;3.684;2023-04-01T11:50:04;100140.3;;;9.70;100.0
22775;BME280;11554;51.106;3.684;2023-04-01T11:55:06;100145.43;;;9.61;100.0
22775;BME280;11554;51.106;3.684;2023-04-01T12:00:02;100147.31;;;9.76;100.0
22775;BME280;11554;51.106;3.684;2023-04-01T12:10:02;100159.48;;;10.21;100.0
22775;BME280;11554;51.106;3.684;2023-04-01T12:15:03;100165.91;;;10.22;100.0
22775;BME280;11554;51.106;3.684;2023-04-01T12:20:02;100171.24;;;10.23;100.0
22775;BME280;11554;51.106;3.684;2023-04-01T12:25:04;100172.52;;;10.10;100.0
22775;BME280;11554;51.106;3.684;2023-04-01T12:40:02;100189.35;;;10.02;100.0
22775;BME280;11554;51.106;3.684;2023-04-01T12:45:02;100198.47;;;10.15;100.0
22775;BME280;11554;51.106;3.684;2023-04-01T12:50:10;100206.91;;;10.12;100.0
22775;BME280;11554;51.106;3.684;2023-04-01T12:55:04;100211.68000000001;;;10.05;100.0
22775;BME280;11554;51.106;3.684;2023-04-01T13:00:09;100212.92;;;9.84;100.0
22775;BME280;11554;51.106;3.684;2023-04-01T13:05:10;100217.08;;;9.78;100.0
22775;BME280;11554;51.106;3.684;2023-04-01T13:10:02;100222.96;;;9.67;100.0
22775;BME280;11554;51.106;3.684;2023-04-01T13:20:02;100234.52;;;9.73;100.0
22775;BME280;11554;51.106;3.684;2023-04-01T13:25:01;100238.4;;;9.84;100.0
22775;BME280;11554;51.106;3.684;2023-04-01T13:30:03;100240.97;;;9.71;100.0
22775;BME280;11554;51.106;3.684;2023-04-01T13:35:04;100247.83;;;9.65;100.0
22775;BME280;11554;51.106;3.684;2023-04-01T13:40:02;100256.95;;;9.50;100.0
22775;BME280;11554;51.106;3.684;2023-04-01T13:45:00;100258.81000000001;;;9.54;100.0
22775;BME280;11554;51.106;3.684;2023-04-01T13:50:03;100262.11;;;9.61;100.0
22775;BME280;11554;51.106;3.684;2023-04-01T13:55:07;100266.5;;;9.71;100.0
22775;BME280;11554;51.106;3.684;2023-04-01T14:00:03;100267.68;;;9.61;100.0
22775;BME280;11554;51.106;3.684;2023-04-01T14:05:09;100273.27;;;9.54;100.0
22775;BME280;11554;51.106;3.684;2023-04-01T14:10:04;100282.4;;;9.56;100.0
22775;BME280;11554;51.106;3.684;2023-04-01T14:15:05;100284.31;;;9.67;100.0
22775;BME280;11554;51.106;3.684;2023-04-01T14:20:05;100285.20999999999;;;9.66;100.0
22775;BME280;11554;51.106;3.684;2023-04-01T14:25:06;100295.45000000001;;;9.89;100.0
22775;BME280;11554;51.106;3.684;2023-04-01T14:30:04;100297.96;;;10.01;100.0
22775;BME280;11554;51.106;3.684;2023-04-01T14:35:09;100305.28;;;9.79;100.0
22775;BME280;11554;51.106;3.684;2023-04-01T14:40:05;100307.72;;;9.73;100.0
22775;BME280;11554;51.106;3.684;2023-04-01T14:50:03;100314.31;;;9.73;100.0
22775;BME280;11554;51.106;3.684;2023-04-01T14:55:00;100318.91;;;9.79;100.0
22775;BME280;11554;51.106;3.684;2023-04-01T15:00:01;100324.19;;;9.64;100.0
22775;BME280;11554;51.106;3.684;2023-04-01T15:05:03;100327.72;;;9.62;100.0
22775;BME280;11554;51.106;3.684;2023-04-01T15:10:01;100329.39;;;9.53;100.0
22775;BME280;11554;51.106;3.684;2023-04-01T15:15:03;100337.53;;;9.45;100.0
22775;BME280;11554;51.106;3.684;2023-04-01T15:20:07;100341.64;;;9.33;100.0
22775;BME280;11554;51.106;3.684;2023-04-01T15:25:05;100346.95;;;9.22;100.0
22775;BME280;11554;51.106;3.684;2023-04-01T15:30:03;100350.39;;;9.21;100.0
22775;BME280;11554;51.106;3.684;2023-04-01T15:35:01;100356.26;;;9.21;100.0
22775;BME280;11554;51.106;3.684;2023-04-01T15:40:02;100357.95000000001;;;9.09;100.0
22775;BME280;11554;51.106;3.684;2023-04-01T15:45:05;100365.22;;;9.11;100.0
22775;BME280;11554;51.106;3.684;2023-04-01T15:50:05;100370.82;;;9.11;100.0
22775;BME280;11554;51.106;3.684;2023-04-01T15:55:02;100378.11;;;9.07;100.0
22775;BME280;11554;51.106;3.684;2023-04-01T16:05:01;100385.88;;;9.01;100.0
22775;BME280;11554;51.106;3.684;2023-04-01T16:10:09;100392.1;;;8.98;100.0
22775;BME280;11554;51.106;3.684;2023-04-01T16:15:03;100395.31;;;8.90;100.0
22775;BME280;11554;51.106;3.684;2023-04-01T16:20:02;100404.22;;;8.83;100.0
22775;BME280;11554;51.106;3.684;2023-04-01T16:25:05;100409.53;;;8.79;100.0
22775;BME280;11554;51.106;3.684;2023-04-01T16:30:01;100413.94;;;8.79;100.0
22775;BME280;11554;51.106;3.684;2023-04-01T16:35:04;100420.42;;;8.72;100.0
22775;BME280;11554;51.106;3.684;2023-04-01T16:40:02;100423.04000000001;;;8.71;100.0
22775;BME280;11554;51.106;3.684;2023-04-01T16:45:01;100432.39;;;8.70;100.0
22775;BME280;11554;51.106;3.684;2023-04-01T16:50:05;100444.11;;;8.64;100.0
22775;BME280;11554;51.106;3.684;2023-04-01T16:55:02;100452.08;;;8.59;100.0
22775;BME280;11554;51.106;3.684;2023-04-01T17:00:02;100456.73000000001;;;8.65;100.0
22775;BME280;11554;51.106;3.684;2023-04-01T17:05:01;100467.0;;;8.63;100.0
22775;BME280;11554;51.106;3.684;2023-04-01T17:10:05;100476.05;;;8.61;100.0
22775;BME280;11554;51.106;3.684;2023-04-01T17:15:02;100484.78;;;8.53;100.0
22775;BME280;11554;51.106;3.684;2023-04-01T17:20:06;100498.91;;;8.48;100.0
22775;BME280;11554;51.106;3.684;2023-04-01T17:25:11;100504.71;;;8.44;100.0
22775;BME280;11554;51.106;3.684;2023-04-01T17:35:00;100522.70999999999;;;8.34;100.0
22775;BME280;11554;51.106;3.684;2023-04-01T17:40:05;100532.03;;;8.27;100.0
22775;BME280;11554;51.106;3.684;2023-04-01T17:45:01;100538.95;;;8.20;100.0
22775;BME280;11554;51.106;3.684;2023-04-01T17:50:02;100548.55;;;8.14;100.0
22775;BME280;11554;51.106;3.684;2023-04-01T17:55:06;100555.12999999999;;;8.12;100.0
22775;BME280;11554;51.106;3.684;2023-04-01T18:00:02;100563.36;;;8.06;100.0
22775;BME280;11554;51.106;3.684;2023-04-01T18:05:04;100571.17;;;8.01;100.0
22775;BME280;11554;51.106;3.684;2023-04-01T18:10:04;100575.12000000001;;;7.95;100.0
22775;BME280;11554;51.106;3.684;2023-04-01T18:15:03;100585.79999999999;;;7.94;100.0
22775;BME280;11554;51.106;3.684;2023-04-01T18:20:02;100592.52;;;7.89;100.0
22775;BME280;11554;51.106;3.684;2023-04-01T18:25:01;100596.19;;;7.84;100.0
22775;BME280;11554;51.106;3.684;2023-04-01T18:30:01;100609.1;;;7.83;100.0
22775;BME280;11554;51.106;3.684;2023-04-01T18:35:02;100618.44;;;7.80;100.0
22775;BME280;11554;51.106;3.684;2023-04-01T18:40:03;100628.75;;;7.78;100.0
22775;BME280;11554;51.106;3.684;2023-04-01T18:45:01;100639.18;;;7.78;100.0
22775;BME280;11554;51.106;3.684;2023-04-01T18:50:02;100647.72;;;7.76;100.0
22775;BME280;11554;51.106;3.684;2023-04-01T19:00:02;100670.94;;;7.72;100.0
22775;BME280;11554;51.106;3.684;2023-04-01T19:05:01;100673.97;;;7.70;100.0
22775;BME280;11554;51.106;3.684;2023-04-01T19:10:00;100685.96;;;7.71;100.0
22775;BME280;11554;51.106;3.684;2023-04-01T19:15:02;100688.5;;;7.68;100.0
22775;BME280;11554;51.106;3.684;2023-04-01T19:20:03;100697.79999999999;;;7.65;100.0
22775;BME280;11554;51.106;3.684;2023-04-01T19:25:02;100711.39;;;7.67;100.0
22775;BME280;11554;51.106;3.684;2023-04-01T19:30:11;100716.90999999999;;;7.66;100.0
22775;BME280;11554;51.106;3.684;2023-04-01T19:35:06;100723.19;;;7.67;100.0
22775;BME280;11554;51.106;3.684;2023-04-01T19:40:03;100730.73000000001;;;7.66;100.0
22775;BME280;11554;51.106;3.684;2023-04-01T19:45:04;100741.45999999999;;;7.66;100.0
22775;BME280;11554;51.106;3.684;2023-04-01T19:50:01;100749.75;;;7.64;100.0
22775;BME280;11554;51.106;3.684;2023-04-01T19:55:02;100750.89;;;7.63;100.0
22775;BME280;11554;51.106;3.684;2023-04-01T20:00:02;100759.83;;;7.62;100.0
22775;BME280;11554;51.106;3.684;2023-04-01T20:05:01;100767.62999999999;;;7.62;100.0
22775;BME280;11554;51.106;3.684;2023-04-01T20:10:02;100774.45;;;7.63;100.0
22775;BME280;11554;51.106;3.684;2023-04-01T20:15:00;100777.82999999999;;;7.61;100.0
22775;BME280;11554;51.106;3.684;2023-04-01T20:20:01;100785.79999999999;;;7.61;100.0
22775;BME280;11554;51.106;3.684;2023-04-01T20:25:02;100792.0;;;7.61;100.0
22775;BME280;11554;51.106;3.684;2023-04-01T20:30:05;100811.08;;;7.61;100.0
22775;BME280;11554;51.106;3.684;2023-04-01T20:50:00;100846.96;;;7.59;100.0
22775;BME280;11554;51.106;3.684;2023-04-01T21:00:07;100860.61;;;7.57;100.0
22775;BME280;11554;51.106;3.684;2023-04-01T21:10:06;100870.46;;;7.57;100.0
22775;BME280;11554;51.106;3.684;2023-04-01T21:15:03;100872.86;;;7.54;100.0
22775;BME280;11554;51.106;3.684;2023-04-01T21:20:05;100876.79000000001;;;7.57;100.0
22775;BME280;11554;51.106;3.684;2023-04-01T21:25:03;100889.79000000001;;;7.57;100.0
22775;BME280;11554;51.106;3.684;2023-04-01T21:30:02;100893.17;;;7.54;100.0
22775;BME280;11554;51.106;3.684;2023-04-01T21:35:01;100905.1;;;7.53;100.0
22775;BME280;11554;51.106;3.684;2023-04-01T21:40:02;100913.87;;;7.52;100.0
22775;BME280;11554;51.106;3.684;2023-04-01T21:45:07;100922.85;;;7.52;100.0
22775;BME280;11554;51.106;3.684;2023-04-01T21:50:03;100924.81;;;7.50;100.0
22775;BME280;11554;51.106;3.684;2023-04-01T22:00:07;100944.31;;;7.48;100.0
22775;BME280;11554;51.106;3.684;2023-04-01T22:05:02;100958.29;;;7.48;100.0
22775;BME280;11554;51.106;3.684;2023-04-01T22:10:02;100969.06999999999;;;7.47;100.0
22775;BME280;11554;51.106;3.684;2023-04-01T22:15:02;100974.45999999999;;;7.46;100.0
22775;BME280;11554;51.106;3.684;2023-04-01T22:20:03;100986.87999999999;;;7.44;100.0
22775;BME280;11554;51.106;3.684;2023-04-01T22:25:02;100986.01999999999;;;7.44;100.0
22775;BME280;11554;51.106;3.684;2023-04-01T22:30:04;100989.92;;;7.43;100.0
22775;BME280;11554;51.106;3.684;2023-04-01T22:35:02;100994.17;;;7.42;100.0
22775;BME280;11554;51.106;3.684;2023-04-01T22:40:08;101008.28;;;7.42;100.0
22775;BME280;11554;51.106;3.684;2023-04-01T22:45:02;101019.87000000001;;;7.40;100.0
22775;BME280;11554;51.106;3.684;2023-04-01T22:50:02;101022.85;;;7.39;100.0
22775;BME280;11554;51.106;3.684;2023-04-01T22:55:01;101030.2;;;7.39;100.0
22775;BME280;11554;51.106;3.684;2023-04-01T23:00:00;101033.5;;;7.38;100.0
22775;BME280;11554;51.106;3.684;2023-04-01T23:05:00;101043.02;;;7.37;100.0
22775;BME280;11554;51.106;3.684;2023-04-01T23:10:01;101049.19;;;7.36;100.0
22775;BME280;11554;51.106;3.684;2023-04-01T23:15:00;101063.55;;;7.35;100.0
22775;BME280;11554;51.106;3.684;2023-04-01T23:20:02;101071.24;;;7.34;100.0
22775;BME280;11554;51.106;3.684;2023-04-01T23:25:03;101080.25;;;7.35;100.0
22775;BME280;11554;51.106;3.684;2023-04-01T23:30:00;101082.25;;;7.32;100.0
22775;BME280;11554;51.106;3.684;2023-04-01T23:35:00;101089.43000000001;;;7.33;100.0
22775;BME280;11554;51.106;3.684;2023-04-01T23:40:00;101095.73000000001;;;7.32;100.0
22775;BME280;11554;51.106;3.684;2023-04-01T23:45:01;101105.57;;;7.32;100.0
22775;BME280;11554;51.106;3.684;2023-04-01T23:50:01;101112.33;;;7.30;100.0
22775;BME280;11554;51.106;3.684;2023-04-01T23:55:01;101121.09;;;7.30;100.0
